Time;durP1;ratioP1;P1;durP2;ratioP2;P2;SDS_P1;SDS_P2;PMS_P1;PMS_P2;Temp;Humidity;BMP_temperature;BMP_pressure;BME280_temperature;BME280_humidity;BME280_pressure;Samples;Min_cycle;Max_cycle;Signal;HPM_P1;HPM_P2
2021/12/25 00:00:56;;;;;;;1.60;1.10;;;-4.60;99.90;;;;;;5056127;28;20236;-50
2021/12/25 00:03:24;;;;;;;1.50;1.07;;;-4.70;99.90;;;;;;5060802;28;20557;-52
2021/12/25 00:05:52;;;;;;;3.70;1.13;;;-4.70;99.90;;;;;;5061241;28;20245;-49
2021/12/25 00:08:19;;;;;;;2.80;1.23;;;-4.70;99.90;;;;;;5056014;28;20805;-48
2021/12/25 00:10:46;;;;;;;2.87;1.23;;;-4.70;99.90;;;;;;5062377;28;20206;-50
2021/12/25 00:13:13;;;;;;;1.47;0.90;;;-4.70;99.90;;;;;;5063930;28;20205;-51
2021/12/25 00:15:41;;;;;;;2.80;0.93;;;-4.70;99.90;;;;;;5057853;28;20205;-51
2021/12/25 00:18:09;;;;;;;2.57;1.27;;;-4.70;99.90;;;;;;5062441;28;20513;-48
2021/12/25 00:20:37;;;;;;;3.20;1.30;;;-4.70;99.90;;;;;;5058274;28;20838;-49
2021/12/25 00:23:06;;;;;;;3.50;1.53;;;-4.70;99.90;;;;;;5063590;28;20208;-47
2021/12/25 00:25:36;;;;;;;1.77;0.80;;;-4.80;99.90;;;;;;5049623;28;20374;-50
2021/12/25 00:28:17;;;;;;;2.70;1.50;;;-4.70;99.90;;;;;;5069084;28;20722;-50
2021/12/25 00:30:58;;;;;;;3.60;1.10;;;-4.80;99.90;;;;;;5035619;28;20205;-49
2021/12/25 00:33:35;;;;;;;3.07;1.20;;;-4.80;99.90;;;;;;5054177;28;20197;-53
2021/12/25 00:36:04;;;;;;;1.83;0.93;;;-4.80;99.90;;;;;;5044104;28;20201;-52
2021/12/25 00:38:31;;;;;;;2.07;1.17;;;-4.80;99.90;;;;;;5040741;28;20213;-54
2021/12/25 00:40:58;;;;;;;2.70;1.20;;;-4.80;99.90;;;;;;5047957;28;20230;-52
2021/12/25 00:43:24;;;;;;;1.23;1.00;;;-4.80;99.90;;;;;;5067982;28;20560;-51
2021/12/25 00:45:51;;;;;;;2.63;1.10;;;-4.80;99.90;;;;;;5060620;28;20458;-48
2021/12/25 00:48:18;;;;;;;7.80;1.20;;;-5.00;99.90;;;;;;5036342;28;20213;-52
2021/12/25 00:50:44;;;;;;;2.47;0.87;;;-4.90;99.90;;;;;;5060048;28;20189;-46
2021/12/25 00:53:12;;;;;;;1.40;1.20;;;-4.90;99.90;;;;;;5062459;28;20217;-52
2021/12/25 00:55:39;;;;;;;2.20;1.00;;;-4.90;99.90;;;;;;5045762;28;20203;-53
2021/12/25 00:58:06;;;;;;;1.57;1.30;;;-4.90;99.90;;;;;;5067848;28;20205;-47
2021/12/25 01:00:33;;;;;;;3.50;1.90;;;-4.90;99.90;;;;;;5050075;28;20259;-47
2021/12/25 01:03:00;;;;;;;2.87;1.23;;;-5.00;99.90;;;;;;5060037;28;20213;-51
2021/12/25 01:05:27;;;;;;;2.27;1.50;;;-5.10;99.90;;;;;;5045332;28;20236;-51
2021/12/25 01:07:54;;;;;;;3.20;1.73;;;-5.10;99.90;;;;;;5046894;28;20198;-54
2021/12/25 01:10:26;;;;;;;3.13;1.50;;;-5.10;99.90;;;;;;5049900;28;20232;-52
2021/12/25 01:13:02;;;;;;;2.53;1.10;;;-5.10;99.90;;;;;;5032423;28;20349;-49
2021/12/25 01:15:36;;;;;;;3.83;1.33;;;-5.10;99.90;;;;;;5047892;28;20196;-52
2021/12/25 01:18:30;;;;;;;1.60;1.50;;;-5.10;99.90;;;;;;5047990;28;20202;-48
2021/12/25 01:21:18;;;;;;;4.77;1.50;;;-5.20;99.90;;;;;;5034650;28;20236;-48
2021/12/25 01:24:16;;;;;;;1.40;1.30;;;-5.40;99.90;;;;;;5045433;28;20213;-50
2021/12/25 01:27:29;;;;;;;1.53;1.10;;;-5.50;99.90;;;;;;5053812;28;20207;-49
2021/12/25 01:30:04;;;;;;;3.40;2.10;;;-5.60;99.90;;;;;;5047431;28;20744;-51
2021/12/25 01:39:06;;;;;;;4.07;1.53;;;-5.80;99.90;;;;;;5040303;28;20216;-48
2021/12/25 01:47:53;;;;;;;2.53;1.80;;;-5.60;99.90;;;;;;5044801;28;20217;-48
2021/12/25 01:50:23;;;;;;;2.17;1.40;;;-5.60;99.90;;;;;;5043094;28;20205;-54
2021/12/25 01:52:50;;;;;;;1.87;1.77;;;-5.50;99.90;;;;;;5059772;28;20363;-52
2021/12/25 01:55:20;;;;;;;4.37;1.67;;;-5.50;99.90;;;;;;5046451;28;20205;-50
2021/12/25 01:57:48;;;;;;;5.13;1.70;;;-5.40;99.90;;;;;;5045314;28;20881;-51
2021/12/25 02:00:20;;;;;;;2.27;1.60;;;-5.50;99.90;;;;;;5037758;28;20289;-49
2021/12/25 02:02:47;;;;;;;2.90;2.10;;;-5.50;99.90;;;;;;5063475;28;20268;-50
2021/12/25 02:05:15;;;;;;;2.70;1.67;;;-5.50;99.90;;;;;;5046677;28;20621;-51
2021/12/25 02:07:42;;;;;;;2.10;1.77;;;-5.50;99.90;;;;;;5034234;28;20303;-49
2021/12/25 02:10:10;;;;;;;1.77;1.47;;;-5.50;99.90;;;;;;5049254;28;20290;-49
2021/12/25 02:12:37;;;;;;;4.20;1.83;;;-5.50;99.90;;;;;;5043077;28;20217;-50
2021/12/25 02:15:10;;;;;;;3.37;1.53;;;-5.40;99.90;;;;;;5031188;28;20210;-49
2021/12/25 02:17:55;;;;;;;1.80;1.50;;;-5.40;99.90;;;;;;5042284;28;20947;-47
2021/12/25 02:20:50;;;;;;;4.63;1.50;;;-5.40;99.90;;;;;;5055479;28;20200;-50
2021/12/25 02:23:21;;;;;;;2.97;1.40;;;-5.40;99.90;;;;;;5039494;28;20673;-50
2021/12/25 02:25:49;;;;;;;4.63;1.67;;;-5.40;99.90;;;;;;5062384;28;20333;-51
2021/12/25 02:28:16;;;;;;;3.70;1.77;;;-5.40;99.90;;;;;;5045917;28;20666;-50
2021/12/25 02:30:45;;;;;;;4.07;1.90;;;-5.40;99.90;;;;;;5028416;28;20204;-50
2021/12/25 02:33:11;;;;;;;2.10;1.90;;;-5.40;99.90;;;;;;5045533;28;20752;-52
2021/12/25 02:35:38;;;;;;;4.03;1.83;;;-5.40;99.90;;;;;;5066248;28;20180;-49
2021/12/25 02:38:07;;;;;;;2.50;1.83;;;-5.50;99.90;;;;;;5057059;28;20201;-51
2021/12/25 02:40:34;;;;;;;3.73;1.80;;;-5.50;99.90;;;;;;5042709;28;20209;-49
2021/12/25 02:43:01;;;;;;;5.07;1.67;;;-5.60;99.90;;;;;;5063983;28;20247;-47
2021/12/25 02:45:28;;;;;;;2.80;1.80;;;-5.70;99.90;;;;;;5030851;28;20209;-51
2021/12/25 02:47:56;;;;;;;3.63;1.70;;;-5.70;99.90;;;;;;5043274;28;20202;-48
2021/12/25 02:50:25;;;;;;;2.73;1.93;;;-5.70;99.90;;;;;;5050939;28;20631;-50
2021/12/25 02:52:52;;;;;;;2.63;1.70;;;-5.80;99.90;;;;;;5056564;28;20252;-51
2021/12/25 02:55:21;;;;;;;3.20;1.90;;;-5.80;99.90;;;;;;5044510;28;20197;-53
2021/12/25 02:57:52;;;;;;;3.17;1.57;;;-5.70;99.90;;;;;;5043013;28;20198;-47
2021/12/25 03:00:21;;;;;;;2.90;1.57;;;-5.70;99.90;;;;;;5044431;28;20202;-54
2021/12/25 03:02:48;;;;;;;2.33;1.63;;;-5.70;99.90;;;;;;5029165;28;20743;-47
2021/12/25 03:05:15;;;;;;;3.27;1.80;;;-5.70;99.90;;;;;;5044774;28;20284;-54
2021/12/25 03:07:42;;;;;;;3.63;1.70;;;-5.70;99.90;;;;;;5042591;28;20338;-53
2021/12/25 03:10:11;;;;;;;4.10;1.50;;;-5.70;99.90;;;;;;5040055;28;20203;-50
2021/12/25 03:12:49;;;;;;;6.50;1.83;;;-5.70;99.90;;;;;;5068177;28;20236;-50
2021/12/25 03:15:27;;;;;;;5.60;1.60;;;-5.80;99.90;;;;;;5065287;28;20231;-52
2021/12/25 03:17:54;;;;;;;3.83;1.53;;;-5.80;99.90;;;;;;5052925;28;20281;-49
2021/12/25 03:20:21;;;;;;;2.73;1.83;;;-5.70;99.90;;;;;;5043415;28;20200;-53
2021/12/25 03:22:48;;;;;;;2.17;1.80;;;-5.70;99.90;;;;;;5061517;28;20980;-47
2021/12/25 03:25:17;;;;;;;2.47;1.90;;;-5.70;99.90;;;;;;5056207;28;20223;-53
2021/12/25 03:27:48;;;;;;;2.67;2.10;;;-5.80;99.90;;;;;;5042150;28;20194;-46
2021/12/25 03:30:17;;;;;;;2.80;2.00;;;-5.70;99.90;;;;;;5038708;28;20212;-50
2021/12/25 03:32:45;;;;;;;2.40;1.90;;;-5.70;99.90;;;;;;5027446;28;20307;-47
2021/12/25 03:35:12;;;;;;;4.60;1.80;;;-5.70;99.90;;;;;;5072057;28;20197;-47
2021/12/25 03:37:39;;;;;;;3.53;1.63;;;-5.90;99.90;;;;;;5065292;28;20212;-50
2021/12/25 03:40:08;;;;;;;3.23;1.67;;;-5.90;99.90;;;;;;5037747;28;20211;-47
2021/12/25 03:42:35;;;;;;;2.80;1.67;;;-6.00;99.90;;;;;;5058971;28;20835;-47
2021/12/25 03:45:04;;;;;;;3.90;1.80;;;-6.00;99.90;;;;;;5045201;28;20265;-47
2021/12/25 03:47:35;;;;;;;2.43;1.47;;;-6.00;99.90;;;;;;5027838;28;20257;-51
2021/12/25 03:58:19;;;;;;;2.30;1.50;;;-5.90;99.90;;;;;;5057431;28;20240;-51
2021/12/25 04:00:48;;;;;;;3.67;2.33;;;-5.90;99.90;;;;;;5075712;28;20200;-54
2021/12/25 04:03:24;;;;;;;4.20;2.03;;;-5.90;99.90;;;;;;5063260;28;20198;-54
2021/12/25 04:05:50;;;;;;;4.33;2.33;;;-5.90;99.90;;;;;;5066023;28;20217;-49
2021/12/25 04:08:22;;;;;;;3.90;2.67;;;-5.90;99.90;;;;;;5043910;28;20294;-53
2021/12/25 04:10:53;;;;;;;3.07;2.10;;;-5.90;99.90;;;;;;5060690;28;20191;-47
2021/12/25 04:13:20;;;;;;;1.80;1.67;;;-5.80;99.90;;;;;;5036072;28;20549;-52
2021/12/25 04:15:48;;;;;;;3.27;2.13;;;-5.90;99.90;;;;;;5060292;28;20442;-53
2021/12/25 04:18:15;;;;;;;2.13;1.90;;;-5.90;99.90;;;;;;5042111;28;20678;-50
2021/12/25 04:20:42;;;;;;;5.87;2.07;;;-5.90;99.90;;;;;;5030008;28;20204;-48
2021/12/25 04:23:13;;;;;;;2.97;2.00;;;-5.90;99.90;;;;;;5062837;28;20219;-49
2021/12/25 04:25:40;;;;;;;2.57;2.00;;;-6.00;99.90;;;;;;5058776;28;21059;-50
2021/12/25 04:28:14;;;;;;;3.23;2.00;;;-5.90;99.90;;;;;;5055547;28;20299;-51
2021/12/25 04:31:01;;;;;;;5.47;2.00;;;-6.00;99.90;;;;;;5058558;28;20461;-50
2021/12/25 04:50:24;;;;;;;2.20;1.77;;;-6.60;99.90;;;;;;5025597;28;20939;-48
2021/12/25 05:04:18;;;;;;;4.10;1.70;;;-6.60;99.90;;;;;;5055813;28;20210;-53
2021/12/25 05:07:02;;;;;;;2.93;1.73;;;-6.60;99.90;;;;;;5028420;28;20223;-48
2021/12/25 05:09:30;;;;;;;3.63;2.10;;;-6.60;99.90;;;;;;5046472;28;20201;-50
2021/12/25 05:11:57;;;;;;;2.30;1.80;;;-6.60;99.90;;;;;;5043411;28;20218;-50
2021/12/25 05:14:24;;;;;;;4.73;1.90;;;-6.60;99.90;;;;;;5037446;28;20205;-54
2021/12/25 05:16:52;;;;;;;4.07;1.70;;;-6.60;99.90;;;;;;5039655;28;20190;-50
2021/12/25 05:19:19;;;;;;;3.47;1.90;;;-6.60;99.90;;;;;;5041121;28;20254;-46
2021/12/25 05:21:45;;;;;;;2.80;1.70;;;-6.50;99.90;;;;;;5050108;28;20937;-52
2021/12/25 05:24:13;;;;;;;2.20;1.87;;;-6.50;99.90;;;;;;5043144;28;20205;-51
2021/12/25 05:26:45;;;;;;;5.13;2.10;;;-6.50;99.90;;;;;;5040776;28;20242;-48
2021/12/25 05:29:21;;;;;;;2.50;1.90;;;-6.50;99.90;;;;;;5043457;28;20274;-49
2021/12/25 05:31:48;;;;;;;2.40;1.70;;;-6.50;99.90;;;;;;5056088;28;20229;-50
2021/12/25 05:34:19;;;;;;;3.90;1.63;;;-6.50;99.90;;;;;;5042077;28;20261;-53
2021/12/25 05:36:54;;;;;;;2.47;2.07;;;-6.60;99.90;;;;;;5047814;28;20235;-49
2021/12/25 05:39:50;;;;;;;2.53;2.20;;;-6.60;99.90;;;;;;5054052;28;20210;-52
2021/12/25 05:42:19;;;;;;;2.97;1.80;;;-6.60;99.90;;;;;;5047996;28;20325;-52
2021/12/25 05:44:46;;;;;;;3.67;1.97;;;-6.50;99.90;;;;;;5044398;28;20183;-48
2021/12/25 05:47:34;;;;;;;2.90;2.00;;;-6.50;99.90;;;;;;5035324;28;20256;-48
2021/12/25 05:50:14;;;;;;;3.13;1.93;;;-6.40;99.90;;;;;;5033739;28;20685;-53
2021/12/25 05:52:56;;;;;;;3.83;2.10;;;-6.50;99.90;;;;;;5033528;28;20227;-52
2021/12/25 05:55:30;;;;;;;2.70;1.87;;;-6.50;99.90;;;;;;5069003;28;20224;-53
2021/12/25 05:58:23;;;;;;;2.20;1.70;;;-6.50;99.90;;;;;;5045333;28;20683;-49
2021/12/25 06:01:11;;;;;;;4.63;1.63;;;-6.60;99.90;;;;;;5040023;28;20243;-49
2021/12/25 06:03:38;;;;;;;2.40;2.00;;;-6.60;99.90;;;;;;5042970;28;20210;-49
2021/12/25 06:06:06;;;;;;;4.50;2.27;;;-6.70;99.90;;;;;;5046696;28;20700;-51
2021/12/25 06:08:33;;;;;;;1.90;1.70;;;-6.70;99.90;;;;;;5030467;28;20294;-49
2021/12/25 06:11:02;;;;;;;2.03;1.60;;;-6.60;99.90;;;;;;5046426;28;20222;-51
2021/12/25 06:13:29;;;;;;;2.40;1.97;;;-6.60;99.90;;;;;;5044409;28;20250;-51
2021/12/25 06:15:58;;;;;;;2.50;1.70;;;-6.60;99.90;;;;;;5046349;28;20202;-50
2021/12/25 06:18:37;;;;;;;3.20;1.90;;;-6.60;99.90;;;;;;5035155;28;20197;-48
2021/12/25 06:21:20;;;;;;;2.23;1.73;;;-6.60;99.90;;;;;;5044988;28;20258;-50
2021/12/25 06:23:57;;;;;;;2.43;1.87;;;-6.60;99.90;;;;;;5032800;28;20211;-50
2021/12/25 06:26:44;;;;;;;2.53;1.83;;;-6.60;99.90;;;;;;5071089;28;20228;-49
2021/12/25 06:29:20;;;;;;;8.17;1.93;;;-6.60;99.90;;;;;;5044519;28;20744;-53
2021/12/25 06:32:08;;;;;;;2.37;1.67;;;-6.60;99.90;;;;;;5059004;28;20224;-51
2021/12/25 06:34:47;;;;;;;3.10;1.73;;;-6.60;99.90;;;;;;5054005;28;20214;-48
2021/12/25 06:37:32;;;;;;;3.40;2.13;;;-6.60;99.90;;;;;;5040730;28;20571;-49
2021/12/25 06:40:24;;;;;;;7.20;2.30;;;-6.70;99.90;;;;;;5028308;28;20237;-53
2021/12/25 06:42:53;;;;;;;3.87;1.97;;;-6.70;99.90;;;;;;5043386;28;20429;-50
2021/12/25 06:45:19;;;;;;;3.63;2.03;;;-6.80;99.90;;;;;;5062770;28;20655;-53
2021/12/25 06:47:46;;;;;;;2.00;1.90;;;-6.80;99.90;;;;;;5035215;28;21379;-51
2021/12/25 06:50:27;;;;;;;2.43;1.70;;;-6.80;99.90;;;;;;5053886;28;20297;-54
2021/12/25 06:53:15;;;;;;;2.83;1.80;;;-6.90;99.90;;;;;;5056063;28;20208;-53
2021/12/25 06:56:14;;;;;;;2.97;1.90;;;-6.90;99.90;;;;;;4997927;28;20631;-51
2021/12/25 06:59:08;;;;;;;2.60;2.00;;;-6.90;99.90;;;;;;5064049;28;20207;-48
2021/12/25 07:01:41;;;;;;;3.93;1.87;;;-6.80;99.90;;;;;;5028855;28;20237;-48
2021/12/25 07:04:14;;;;;;;2.97;1.70;;;-6.80;99.90;;;;;;5053615;28;20971;-48
2021/12/25 07:06:59;;;;;;;5.57;2.63;;;-6.80;99.90;;;;;;5047989;28;20261;-52
2021/12/25 07:09:49;;;;;;;3.70;2.07;;;-6.80;99.90;;;;;;5016145;28;20207;-49
2021/12/25 07:12:43;;;;;;;2.53;2.30;;;-6.80;99.90;;;;;;5032072;28;20259;-51
2021/12/25 07:15:30;;;;;;;3.77;2.43;;;-6.80;99.90;;;;;;5063230;28;20344;-52
2021/12/25 07:18:08;;;;;;;4.73;2.53;;;-6.70;99.90;;;;;;5029286;28;20290;-50
2021/12/25 07:20:55;;;;;;;3.23;2.07;;;-6.80;99.90;;;;;;5051767;28;20266;-51
2021/12/25 07:23:47;;;;;;;2.83;2.37;;;-6.80;99.90;;;;;;5037617;28;20694;-53
2021/12/25 07:26:24;;;;;;;4.23;2.17;;;-6.70;99.90;;;;;;5045881;28;21161;-52
2021/12/25 07:29:19;;;;;;;4.87;2.33;;;-6.70;99.90;;;;;;5040579;28;20754;-49
2021/12/25 07:31:49;;;;;;;4.50;2.23;;;-6.70;99.90;;;;;;5057504;28;20223;-50
2021/12/25 07:34:16;;;;;;;3.87;2.27;;;-6.70;99.90;;;;;;5046578;28;20195;-50
2021/12/25 07:36:42;;;;;;;4.67;2.53;;;-6.70;99.90;;;;;;5055330;28;20677;-48
2021/12/25 07:39:09;;;;;;;5.90;2.50;;;-6.70;99.90;;;;;;5057809;28;20199;-50
2021/12/25 07:41:36;;;;;;;3.00;2.27;;;-6.70;99.90;;;;;;5039059;28;21977;-49
2021/12/25 07:44:04;;;;;;;3.10;2.17;;;-6.70;99.90;;;;;;5039027;28;20195;-52
2021/12/25 07:46:43;;;;;;;7.67;2.70;;;-6.70;99.90;;;;;;5047357;28;20256;-54
2021/12/25 07:49:16;;;;;;;5.57;2.23;;;-6.60;99.90;;;;;;5044628;28;20214;-52
2021/12/25 07:51:43;;;;;;;3.53;1.90;;;-6.60;99.90;;;;;;5054069;28;20273;-54
2021/12/25 07:54:09;;;;;;;2.43;2.00;;;-6.60;99.90;;;;;;5051803;28;20757;-49
2021/12/25 07:56:36;;;;;;;2.63;2.00;;;-6.70;99.90;;;;;;5051637;28;20235;-52
2021/12/25 07:59:04;;;;;;;3.63;2.27;;;-6.70;99.90;;;;;;5046049;28;20206;-48
2021/12/25 08:01:34;;;;;;;3.53;2.20;;;-6.70;99.90;;;;;;5066920;28;20700;-49
2021/12/25 08:04:01;;;;;;;2.70;2.47;;;-6.60;99.90;;;;;;5057272;28;20285;-48
2021/12/25 08:06:30;;;;;;;4.83;1.80;;;-6.60;99.90;;;;;;5052300;28;20206;-48
2021/12/25 08:09:00;;;;;;;3.80;2.30;;;-6.60;99.90;;;;;;5052240;28;20206;-51
2021/12/25 08:11:27;;;;;;;3.50;2.47;;;-6.60;99.90;;;;;;5057091;28;20226;-51
2021/12/25 08:13:54;;;;;;;9.13;2.90;;;-6.70;99.90;;;;;;5046804;28;20207;-54
2021/12/25 08:16:21;;;;;;;6.70;3.27;;;-6.60;99.90;;;;;;5053841;28;20211;-52
2021/12/25 08:18:48;;;;;;;3.13;2.23;;;-6.50;99.90;;;;;;5061606;28;20200;-53
2021/12/25 08:21:34;;;;;;;3.73;2.37;;;-6.50;99.90;;;;;;5051084;28;20246;-52
2021/12/25 08:24:20;;;;;;;4.37;2.57;;;-6.40;99.90;;;;;;5053320;28;20458;-48
2021/12/25 08:27:07;;;;;;;4.33;2.57;;;-6.40;99.90;;;;;;5056120;28;20291;-50
2021/12/25 08:29:53;;;;;;;5.40;2.20;;;-6.50;99.90;;;;;;5048885;28;20714;-50
2021/12/25 08:32:38;;;;;;;4.70;2.27;;;-6.50;99.90;;;;;;5063443;28;20222;-49
2021/12/25 08:35:26;;;;;;;5.90;3.03;;;-6.50;99.90;;;;;;5015378;28;20610;-50
2021/12/25 08:37:55;;;;;;;7.50;2.87;;;-6.40;99.90;;;;;;5052728;28;20233;-52
2021/12/25 08:40:24;;;;;;;3.93;2.73;;;-6.40;99.90;;;;;;5055255;28;20194;-48
2021/12/25 08:42:54;;;;;;;4.63;3.43;;;-6.40;99.90;;;;;;5062479;28;20231;-51
2021/12/25 08:45:40;;;;;;;2.40;2.20;;;-6.30;99.90;;;;;;5049003;28;20211;-50
2021/12/25 08:48:10;;;;;;;4.33;2.20;;;-6.30;99.90;;;;;;5059688;28;20199;-47
2021/12/25 08:50:37;;;;;;;3.23;2.23;;;-6.20;99.90;;;;;;5060856;28;20202;-50
2021/12/25 08:53:05;;;;;;;4.27;2.73;;;-6.00;99.90;;;;;;5045731;28;20210;-51
2021/12/25 08:55:32;;;;;;;2.30;2.10;;;-5.90;99.90;;;;;;5057130;28;20233;-48
2021/12/25 08:57:59;;;;;;;3.10;2.70;;;-5.80;99.90;;;;;;5057529;28;20224;-53
2021/12/25 09:00:25;;;;;;;4.63;2.77;;;-5.70;99.90;;;;;;5048310;28;20216;-53
2021/12/25 09:02:52;;;;;;;8.07;2.60;;;-5.60;99.90;;;;;;5066695;28;20218;-53
2021/12/25 09:05:19;;;;;;;3.37;2.30;;;-5.60;99.90;;;;;;5056709;28;20187;-53
2021/12/25 09:07:46;;;;;;;2.60;2.20;;;-5.50;99.90;;;;;;5049757;28;20202;-53
2021/12/25 09:10:15;;;;;;;3.77;2.20;;;-5.50;99.90;;;;;;5046993;28;20406;-48
2021/12/25 09:12:43;;;;;;;5.53;2.43;;;-5.50;99.90;;;;;;5057765;28;20308;-52
2021/12/25 09:15:10;;;;;;;2.50;2.20;;;-5.40;99.90;;;;;;5048017;28;20776;-52
2021/12/25 09:17:37;;;;;;;3.57;2.63;;;-5.20;99.90;;;;;;5068656;28;20299;-52
2021/12/25 09:20:05;;;;;;;4.60;2.33;;;-5.20;99.90;;;;;;5066479;28;20214;-48
2021/12/25 09:22:32;;;;;;;4.77;2.57;;;-5.10;99.90;;;;;;5056314;28;20224;-47
2021/12/25 09:24:59;;;;;;;4.93;2.93;;;-5.00;99.90;;;;;;5058818;28;20208;-52
2021/12/25 09:27:27;;;;;;;2.70;2.50;;;-4.90;99.90;;;;;;5057004;28;20229;-49
2021/12/25 09:29:54;;;;;;;3.03;2.73;;;-4.80;99.90;;;;;;5067698;28;20576;-48
2021/12/25 09:32:20;;;;;;;2.40;2.20;;;-4.80;99.90;;;;;;5054601;28;20298;-47
2021/12/25 09:34:47;;;;;;;7.87;2.73;;;-4.70;99.90;;;;;;5071150;28;20283;-47
2021/12/25 09:37:14;;;;;;;2.87;2.43;;;-4.60;99.90;;;;;;5060299;28;20211;-53
2021/12/25 09:39:41;;;;;;;2.27;1.90;;;-4.60;99.90;;;;;;5055579;28;20193;-50
2021/12/25 09:42:09;;;;;;;20.23;12.30;;;-4.50;99.90;;;;;;5058333;28;20229;-54
2021/12/25 09:44:37;;;;;;;2.80;2.53;;;-4.50;99.90;;;;;;5066018;28;20197;-50
2021/12/25 09:47:05;;;;;;;5.93;2.57;;;-4.40;99.90;;;;;;5051212;28;20203;-52
2021/12/25 09:49:32;;;;;;;5.23;2.30;;;-4.40;99.90;;;;;;5061830;28;20193;-53
2021/12/25 09:51:59;;;;;;;3.13;2.20;;;-4.30;99.90;;;;;;5065904;28;20296;-48
2021/12/25 09:54:28;;;;;;;3.27;1.87;;;-4.20;99.90;;;;;;5049494;28;20882;-51
2021/12/25 09:56:56;;;;;;;6.30;2.33;;;-4.00;99.90;;;;;;5062932;28;20256;-48
2021/12/25 09:59:23;;;;;;;4.80;2.30;;;-3.90;99.90;;;;;;5055900;28;20801;-51
2021/12/25 10:01:53;;;;;;;4.63;2.30;;;-3.80;99.90;;;;;;5055029;28;20220;-49
2021/12/25 10:04:37;;;;;;;3.23;2.77;;;-3.70;99.90;;;;;;5064488;28;20213;-55
2021/12/25 10:07:23;;;;;;;4.83;2.87;;;-3.60;99.90;;;;;;5064654;28;20194;-54
2021/12/25 10:10:05;;;;;;;4.50;3.50;;;-3.20;99.90;;;;;;5050089;28;20212;-48
2021/12/25 10:12:38;;;;;;;7.80;3.70;;;-2.70;99.90;;;;;;5057651;28;21084;-49
2021/12/25 10:15:08;;;;;;;6.23;4.40;;;-2.40;99.90;;;;;;5064399;28;20217;-54
2021/12/25 10:17:44;;;;;;;7.90;4.47;;;-2.40;99.90;;;;;;5050241;28;20947;-50
2021/12/25 10:20:14;;;;;;;5.87;3.90;;;-2.40;99.90;;;;;;5062596;28;20212;-54
2021/12/25 10:23:04;;;;;;;5.17;3.30;;;-2.40;99.90;;;;;;5059931;28;20241;-49
2021/12/25 10:25:38;;;;;;;6.63;3.70;;;-2.40;99.90;;;;;;5050829;28;20343;-49
2021/12/25 10:28:07;;;;;;;7.17;4.33;;;-2.40;99.90;;;;;;5063332;28;20205;-52
2021/12/25 10:30:45;;;;;;;7.17;4.27;;;-2.40;99.90;;;;;;5053842;28;20214;-51
2021/12/25 10:33:26;;;;;;;5.40;4.83;;;-2.40;99.90;;;;;;5051162;28;20868;-54
2021/12/25 10:35:54;;;;;;;9.80;5.20;;;-2.40;99.90;;;;;;5068980;28;20205;-49
2021/12/25 10:38:22;;;;;;;5.27;4.60;;;-2.30;99.90;;;;;;5050517;28;20585;-48
2021/12/25 10:40:51;;;;;;;6.53;4.83;;;-2.20;99.90;;;;;;5063446;28;20596;-48
2021/12/25 10:43:23;;;;;;;8.60;5.20;;;-2.00;99.90;;;;;;5059359;28;20198;-54
2021/12/25 10:46:00;;;;;;;6.17;4.73;;;-1.90;99.90;;;;;;5060134;28;20214;-56
2021/12/25 10:48:29;;;;;;;6.17;4.37;;;-1.90;99.90;;;;;;5042129;28;20195;-54
2021/12/25 10:50:57;;;;;;;6.07;4.50;;;-1.90;99.90;;;;;;5064034;28;20195;-49
2021/12/25 10:53:26;;;;;;;5.73;4.93;;;-2.00;99.90;;;;;;5056841;28;20300;-54
2021/12/25 10:55:53;;;;;;;6.30;4.43;;;-2.00;99.90;;;;;;5054409;28;20203;-52
2021/12/25 10:58:22;;;;;;;7.63;4.97;;;-1.90;99.90;;;;;;5053308;28;20226;-47
2021/12/25 11:00:55;;;;;;;5.20;4.57;;;-1.80;99.90;;;;;;5057884;28;20195;-50
2021/12/25 11:03:30;;;;;;;7.90;4.50;;;-1.70;99.90;;;;;;5040465;28;20203;-46
2021/12/25 11:06:02;;;;;;;6.03;3.87;;;-1.70;99.90;;;;;;5072862;28;20202;-48
2021/12/25 11:08:29;;;;;;;5.70;3.80;;;-1.70;99.90;;;;;;5060950;28;20240;-52
2021/12/25 11:10:59;;;;;;;4.10;3.70;;;-1.60;99.90;;;;;;5058217;28;20230;-48
2021/12/25 11:13:29;;;;;;;7.67;4.33;;;-1.60;99.90;;;;;;5052141;28;20207;-47
2021/12/25 11:16:04;;;;;;;4.87;3.70;;;-1.50;99.90;;;;;;5054419;28;20203;-49
2021/12/25 11:18:48;;;;;;;7.20;2.83;;;-1.50;99.90;;;;;;5054356;28;20222;-51
2021/12/25 11:21:15;;;;;;;2.83;2.50;;;-1.40;99.90;;;;;;5052284;28;20277;-49
2021/12/25 11:23:42;;;;;;;3.83;2.93;;;-1.40;99.90;;;;;;5064213;28;20203;-49
2021/12/25 11:26:09;;;;;;;4.70;2.97;;;-1.40;99.90;;;;;;5058816;28;20590;-50
2021/12/25 11:28:36;;;;;;;3.77;2.83;;;-1.30;99.90;;;;;;5057055;28;20187;-51
2021/12/25 11:31:03;;;;;;;7.83;3.10;;;-1.30;99.90;;;;;;5061232;28;20226;-52
2021/12/25 11:33:30;;;;;;;3.00;2.30;;;-1.20;99.90;;;;;;5062830;28;20182;-48
2021/12/25 11:35:58;;;;;;;2.73;2.20;;;-1.20;99.90;;;;;;5049720;28;20564;-49
2021/12/25 11:38:24;;;;;;;6.60;1.87;;;-1.20;99.90;;;;;;5068881;28;20214;-52
2021/12/25 11:40:53;;;;;;;2.03;1.90;;;-1.20;99.90;;;;;;5057231;28;20210;-52
2021/12/25 11:43:34;;;;;;;2.73;1.87;;;-1.20;99.90;;;;;;5055055;28;20543;-49
2021/12/25 11:46:05;;;;;;;3.03;1.83;;;-1.10;99.90;;;;;;5060726;28;20219;-50
2021/12/25 11:48:32;;;;;;;5.07;2.07;;;-1.10;99.90;;;;;;5060917;28;20186;-53
2021/12/25 11:51:00;;;;;;;6.27;2.10;;;-1.10;99.90;;;;;;5049936;28;20225;-51
2021/12/25 11:53:43;;;;;;;3.37;1.90;;;-1.10;99.90;;;;;;5065368;28;20191;-49
2021/12/25 11:56:26;;;;;;;4.30;1.80;;;-1.00;99.90;;;;;;5055921;28;20210;-48
2021/12/25 11:58:55;;;;;;;3.53;2.13;;;-1.00;99.90;;;;;;5055239;28;20219;-48
2021/12/25 12:01:31;;;;;;;1.83;1.73;;;-1.00;99.90;;;;;;5045320;28;20234;-50
2021/12/25 12:03:59;;;;;;;4.20;2.40;;;-0.90;99.90;;;;;;5058345;28;20205;-49
2021/12/25 12:07:03;;;;;;;3.00;1.80;;;-0.90;99.90;;;;;;5039876;28;24843;-46
2021/12/25 12:09:55;;;;;;;2.53;2.20;;;-0.90;99.90;;;;;;5055432;28;20587;-47
2021/12/25 12:12:40;;;;;;;2.63;1.90;;;-0.80;99.90;;;;;;5061936;28;20867;-47
2021/12/25 12:15:16;;;;;;;3.13;1.93;;;-0.80;99.90;;;;;;5060494;28;20218;-51
2021/12/25 12:17:58;;;;;;;3.50;2.10;;;-0.80;99.90;;;;;;5054122;28;20279;-50
2021/12/25 12:20:38;;;;;;;3.13;2.13;;;-0.70;99.90;;;;;;5047750;28;20194;-47
2021/12/25 12:23:35;;;;;;;4.33;2.03;;;-0.70;99.90;;;;;;5049655;28;20218;-52
2021/12/25 12:26:03;;;;;;;2.57;2.20;;;-0.70;99.90;;;;;;5062203;28;20198;-48
2021/12/25 12:28:48;;;;;;;3.10;2.03;;;-0.70;99.90;;;;;;5051847;28;20907;-47
2021/12/25 12:31:39;;;;;;;4.67;2.07;;;-0.60;99.90;;;;;;5054190;28;20246;-46
2021/12/25 12:34:34;;;;;;;1.87;1.50;;;-0.60;99.90;;;;;;5056692;28;20221;-52
2021/12/25 12:37:26;;;;;;;2.57;2.10;;;-0.50;99.90;;;;;;5061038;28;20187;-47
2021/12/25 12:40:25;;;;;;;4.57;2.10;;;-0.50;99.90;;;;;;5054228;28;20217;-47
2021/12/25 12:42:57;;;;;;;1.77;1.50;;;-0.50;99.90;;;;;;5056131;28;20810;-46
2021/12/25 12:45:25;;;;;;;3.30;1.67;;;-0.50;99.90;;;;;;5057204;28;20273;-48
2021/12/25 12:48:12;;;;;;;4.67;1.90;;;-0.40;99.90;;;;;;5061683;28;20187;-46
2021/12/25 12:50:41;;;;;;;3.37;1.50;;;-0.40;99.90;;;;;;5053884;28;20198;-49
2021/12/25 12:53:09;;;;;;;2.73;1.00;;;-0.40;99.90;;;;;;5055992;28;20210;-46
2021/12/25 12:55:39;;;;;;;2.77;1.27;;;-0.40;99.90;;;;;;5055924;28;20354;-47
2021/12/25 12:58:14;;;;;;;1.63;1.27;;;-0.40;99.90;;;;;;5062043;28;20222;-50
2021/12/25 13:00:44;;;;;;;1.40;1.30;;;-0.40;99.90;;;;;;5054494;28;20194;-46
2021/12/25 13:03:11;;;;;;;8.77;1.87;;;-0.40;99.90;;;;;;5052245;28;20212;-48
2021/12/25 13:05:40;;;;;;;3.47;1.40;;;-0.40;99.90;;;;;;5053899;28;20924;-47
2021/12/25 13:08:12;;;;;;;1.40;1.03;;;-0.40;99.90;;;;;;5061013;28;20191;-48
2021/12/25 13:10:45;;;;;;;3.77;1.30;;;-0.40;99.90;;;;;;5050992;28;20203;-50
2021/12/25 13:13:15;;;;;;;6.87;1.67;;;-0.30;99.90;;;;;;5063184;28;20692;-51
2021/12/25 13:15:44;;;;;;;6.13;1.77;;;-0.30;99.90;;;;;;5055752;28;20447;-48
2021/12/25 13:18:12;;;;;;;2.37;1.80;;;-0.30;99.90;;;;;;5049352;28;20256;-50
2021/12/25 13:20:43;;;;;;;2.23;1.30;;;-0.30;99.90;;;;;;5050158;28;21568;-49
2021/12/25 13:23:12;;;;;;;6.40;1.33;;;-0.30;99.90;;;;;;5058490;28;20219;-50
2021/12/25 13:25:51;;;;;;;3.67;1.30;;;-0.30;99.90;;;;;;5046824;28;20285;-46
2021/12/25 13:28:18;;;;;;;3.40;1.20;;;-0.40;99.90;;;;;;5061919;28;20197;-49
2021/12/25 13:30:49;;;;;;;1.77;1.30;;;-0.40;99.90;;;;;;5056250;28;20677;-51
2021/12/25 13:33:20;;;;;;;2.10;1.30;;;-0.40;99.90;;;;;;5052103;28;20194;-49
2021/12/25 13:35:47;;;;;;;3.10;1.60;;;-0.40;99.90;;;;;;5052550;28;20683;-48
2021/12/25 13:38:14;;;;;;;3.07;1.40;;;-0.40;99.90;;;;;;5064850;28;20211;-49
2021/12/25 13:40:49;;;;;;;2.57;1.40;;;-0.40;99.90;;;;;;5064366;28;20204;-47
2021/12/25 13:43:16;;;;;;;2.80;1.20;;;-0.30;99.90;;;;;;5045219;28;20552;-48
2021/12/25 13:45:43;;;;;;;3.43;1.40;;;-0.40;99.90;;;;;;5055409;28;20235;-47
2021/12/25 13:48:10;;;;;;;2.27;1.47;;;-0.40;99.90;;;;;;5058324;28;20689;-47
2021/12/25 13:50:37;;;;;;;5.13;1.47;;;-0.40;99.90;;;;;;5055257;28;20207;-51
2021/12/25 13:53:10;;;;;;;4.57;1.37;;;-0.40;99.90;;;;;;5056784;28;20217;-46
2021/12/25 13:55:37;;;;;;;1.70;1.60;;;-0.40;99.90;;;;;;5058791;28;20201;-47
2021/12/25 13:58:07;;;;;;;3.40;1.30;;;-0.40;99.90;;;;;;5048156;28;20211;-48
2021/12/25 14:00:38;;;;;;;2.60;1.00;;;-0.40;99.90;;;;;;5062617;28;20202;-45
2021/12/25 14:03:07;;;;;;;1.33;1.17;;;-0.40;99.90;;;;;;5056044;28;20215;-49
2021/12/25 14:05:36;;;;;;;3.70;1.10;;;-0.40;99.90;;;;;;5042961;28;20192;-49